createdAt,value
2019-04-05T00:01:53.813Z,5.87
2019-04-05T00:04:21.056Z,5.78
2019-04-05T00:06:48.848Z,5.37
2019-04-05T00:09:16.122Z,6.03
2019-04-05T00:11:43.435Z,5.08
2019-04-05T00:14:10.670Z,7.08
2019-04-05T00:16:37.856Z,7.15
2019-04-05T00:19:05.093Z,6.37
2019-04-05T00:21:32.355Z,7.28
2019-04-05T00:24:01.171Z,6.12
2019-04-05T00:26:28.367Z,5.77
2019-04-05T00:28:55.545Z,6.97
2019-04-05T00:31:22.750Z,6.03
2019-04-05T00:33:49.994Z,5.00
2019-04-05T00:36:17.175Z,6.42
2019-04-05T00:38:44.388Z,7.28
2019-04-05T00:41:11.694Z,7.00
2019-04-05T00:43:38.898Z,5.97
2019-04-05T00:46:06.226Z,5.92
2019-04-05T00:48:33.493Z,6.80
2019-04-05T00:51:00.691Z,5.90
2019-04-05T00:53:27.963Z,6.53
2019-04-05T00:55:55.270Z,5.47
2019-04-05T00:58:22.457Z,5.33
2019-04-05T01:00:49.649Z,5.47
2019-04-05T01:03:16.970Z,5.67
2019-04-05T01:05:44.283Z,6.70
2019-04-05T01:08:11.523Z,6.22
2019-04-05T01:10:38.752Z,5.00
2019-04-05T01:13:05.922Z,4.67
2019-04-05T01:15:40.647Z,4.65
2019-04-05T01:18:02.506Z,4.97
2019-04-05T01:20:31.330Z,5.67
2019-04-05T01:22:58.518Z,5.53
2019-04-05T01:25:25.738Z,5.00
2019-04-05T01:27:52.985Z,5.17
2019-04-05T01:30:20.190Z,5.28
2019-04-05T01:32:47.490Z,5.60
2019-04-05T01:35:14.687Z,5.53
2019-04-05T01:37:41.896Z,5.92
2019-04-05T01:40:09.142Z,5.40
2019-04-05T01:42:37.119Z,6.42
2019-04-05T01:45:05.978Z,6.73
2019-04-05T01:47:33.231Z,7.15
2019-04-05T01:50:00.479Z,6.80
2019-04-05T01:52:27.707Z,7.20
2019-04-05T01:54:55.013Z,7.93
2019-04-05T01:57:22.213Z,6.87
2019-04-05T01:59:49.394Z,5.95
2019-04-05T02:02:16.618Z,6.80
2019-04-05T02:04:43.950Z,6.08
2019-04-05T02:07:11.151Z,5.92
2019-04-05T02:09:38.455Z,5.43
2019-04-05T02:12:05.668Z,4.90
2019-04-05T02:14:32.884Z,5.87
2019-04-05T02:17:00.113Z,5.77
2019-04-05T02:19:27.306Z,5.37
2019-04-05T02:21:54.558Z,5.70
2019-04-05T02:24:21.773Z,4.77
2019-04-05T02:26:48.969Z,4.92
2019-04-05T02:29:16.155Z,5.12
2019-04-05T02:31:44.545Z,4.60
2019-04-05T02:34:11.812Z,5.12
2019-04-05T02:36:39.017Z,4.40
2019-04-05T02:39:06.416Z,5.40
2019-04-05T02:41:33.669Z,4.90
2019-04-05T02:44:00.863Z,6.40
2019-04-05T02:46:28.434Z,6.62
2019-04-05T02:48:55.622Z,6.50
2019-04-05T02:51:22.830Z,6.53
2019-04-05T02:53:50.088Z,6.55
2019-04-05T02:56:17.451Z,6.77
2019-04-05T02:58:44.640Z,6.37
2019-04-05T03:01:11.951Z,6.53
2019-04-05T03:03:39.128Z,7.10
2019-04-05T03:06:06.344Z,7.50
2019-04-05T03:08:33.648Z,7.17
2019-04-05T03:11:08.601Z,7.22
2019-04-05T03:13:36.054Z,8.80
2019-04-05T03:16:04.145Z,7.97
2019-04-05T03:18:31.414Z,8.85
2019-04-05T03:21:00.194Z,8.35
2019-04-05T03:23:27.421Z,7.80
2019-04-05T03:25:54.695Z,8.63
2019-04-05T03:28:21.864Z,8.10
2019-04-05T03:30:50.069Z,7.80
2019-04-05T03:33:17.269Z,8.28
2019-04-05T03:35:44.640Z,8.40
2019-04-05T03:38:11.952Z,8.15
2019-04-05T03:40:39.311Z,8.10
2019-04-05T03:43:06.571Z,7.72
2019-04-05T03:45:33.799Z,6.33
2019-04-05T03:48:00.996Z,6.58
2019-04-05T03:50:28.294Z,6.53
2019-04-05T03:52:55.530Z,5.80
2019-04-05T03:55:22.762Z,6.03
2019-04-05T03:57:50.062Z,5.30
2019-04-05T04:00:17.262Z,6.77
2019-04-05T04:02:44.487Z,5.47
2019-04-05T04:05:11.774Z,5.50
2019-04-05T04:07:39.003Z,5.62
2019-04-05T04:10:06.270Z,6.22
2019-04-05T04:12:33.536Z,6.03
2019-04-05T04:15:02.485Z,4.72
2019-04-05T04:17:29.905Z,5.35
2019-04-05T04:19:57.160Z,6.50
2019-04-05T04:22:25.976Z,4.62
2019-04-05T04:24:53.219Z,4.70
2019-04-05T04:27:20.423Z,3.83
2019-04-05T04:29:47.794Z,4.80
2019-04-05T04:32:15.099Z,4.95
2019-04-05T04:34:42.355Z,4.40
2019-04-05T04:37:09.957Z,4.53
2019-04-05T04:39:37.258Z,4.22
2019-04-05T04:42:04.446Z,5.75
2019-04-05T04:44:31.719Z,5.50
2019-04-05T04:46:59.023Z,4.78
2019-04-05T04:49:26.273Z,5.03
2019-04-05T04:51:53.452Z,5.10
2019-04-05T04:54:20.682Z,5.37
2019-04-05T04:56:47.879Z,5.40
2019-04-05T04:59:15.227Z,7.42
2019-04-05T05:01:42.586Z,6.13
2019-04-05T05:04:09.841Z,5.90
2019-04-05T05:06:37.041Z,6.92
2019-04-05T05:09:06.435Z,7.12
2019-04-05T05:11:33.774Z,7.33
2019-04-05T05:14:00.954Z,7.35
2019-04-05T05:16:28.518Z,7.47
2019-04-05T05:18:57.330Z,8.93
2019-04-05T05:21:24.541Z,8.60
2019-04-05T05:23:52.305Z,8.15
2019-04-05T05:26:19.554Z,8.55
2019-04-05T05:28:46.846Z,8.15
2019-04-05T05:31:14.251Z,8.30
2019-04-05T05:33:41.436Z,8.07
2019-04-05T05:36:10.496Z,8.00
2019-04-05T05:38:37.568Z,7.90
2019-04-05T05:41:04.777Z,8.15
2019-04-05T05:43:31.953Z,7.58
2019-04-05T05:45:59.263Z,7.45
2019-04-05T05:48:26.533Z,9.70
2019-04-05T05:50:55.556Z,9.73
2019-04-05T05:53:22.787Z,8.98
2019-04-05T05:55:50.012Z,9.63
2019-04-05T05:58:17.337Z,9.40
2019-04-05T06:00:58.232Z,10.08
2019-04-05T06:03:23.119Z,9.40
2019-04-05T06:06:04.155Z,10.15
2019-04-05T06:08:24.086Z,9.85
2019-04-05T06:10:52.335Z,9.50
2019-04-05T06:13:19.551Z,9.60
2019-04-05T06:15:46.810Z,11.87
2019-04-05T06:18:14.052Z,12.47
2019-04-05T06:20:41.871Z,11.97
2019-04-05T06:23:09.163Z,10.65
2019-04-05T06:25:36.454Z,12.40
2019-04-05T06:28:03.850Z,12.37
2019-04-05T06:30:31.108Z,13.62
2019-04-05T06:32:58.392Z,13.88
2019-04-05T06:35:25.584Z,14.13
2019-04-05T06:37:52.842Z,12.50
2019-04-05T06:40:20.075Z,10.32
2019-04-05T06:42:47.269Z,12.28
2019-04-05T06:45:14.504Z,10.43
2019-04-05T06:47:41.737Z,10.15
2019-04-05T06:50:08.941Z,10.15
2019-04-05T06:52:36.209Z,10.72
2019-04-05T06:55:04.103Z,8.95
2019-04-05T06:57:31.291Z,9.33
2019-04-05T06:59:58.480Z,9.45
2019-04-05T07:02:27.422Z,8.33
2019-04-05T07:04:54.664Z,8.23
2019-04-05T07:07:21.858Z,8.17
2019-04-05T07:09:49.169Z,8.03
2019-04-05T07:12:16.449Z,8.10
2019-04-05T07:14:43.689Z,7.90
2019-04-05T07:17:12.574Z,7.12
2019-04-05T07:19:39.827Z,6.15
2019-04-05T07:22:07.105Z,6.35
2019-04-05T07:24:34.334Z,5.90
2019-04-05T07:27:01.554Z,5.72
2019-04-05T07:29:28.754Z,6.20
2019-04-05T07:31:55.987Z,5.63
2019-04-05T07:34:23.170Z,5.87
2019-04-05T07:36:50.374Z,5.50
2019-04-05T07:39:17.642Z,4.80
2019-04-05T07:41:47.711Z,6.05
2019-04-05T07:44:14.909Z,13.28
2019-04-05T07:46:42.893Z,3.92
2019-04-05T07:49:10.078Z,3.42
2019-04-05T07:51:37.268Z,3.40
2019-04-05T07:54:04.485Z,3.15
2019-04-05T07:56:33.340Z,4.53
2019-04-05T07:59:00.546Z,3.67
2019-04-05T08:01:27.771Z,3.65
2019-04-05T08:03:57.933Z,3.50
2019-04-05T08:06:24.052Z,3.42
2019-04-05T08:08:52.989Z,3.50
2019-04-05T08:11:20.257Z,3.27
2019-04-05T08:13:47.502Z,4.20
2019-04-05T08:16:15.366Z,3.75
2019-04-05T08:18:42.549Z,4.28
2019-04-05T08:21:12.404Z,4.30
2019-04-05T08:23:39.728Z,4.45
2019-04-05T08:26:06.985Z,4.70
2019-04-05T08:28:34.196Z,4.15
2019-04-05T08:31:01.410Z,5.33
2019-04-05T08:33:28.667Z,4.62
2019-04-05T08:35:55.937Z,4.05
2019-04-05T08:38:23.238Z,4.60
2019-04-05T08:40:50.555Z,4.33
2019-04-05T08:43:17.887Z,5.08
2019-04-05T08:45:45.114Z,5.20
2019-04-05T08:48:12.857Z,6.20
2019-04-05T08:50:40.107Z,18.20
2019-04-05T08:53:07.367Z,5.43
2019-04-05T08:55:36.231Z,5.78
2019-04-05T08:58:03.489Z,4.85
2019-04-05T09:00:30.869Z,4.95
2019-04-05T09:02:58.125Z,6.50
2019-04-05T09:05:25.577Z,5.83
2019-04-05T09:07:52.885Z,5.62
2019-04-05T09:10:20.132Z,5.60
2019-04-05T09:12:47.576Z,5.37
2019-04-05T09:15:15.134Z,4.83
2019-04-05T09:17:42.354Z,4.70
2019-04-05T09:20:09.586Z,5.28
2019-04-05T09:22:36.983Z,5.28
2019-04-05T09:25:07.311Z,5.37
2019-04-05T09:27:34.606Z,6.97
2019-04-05T09:30:01.845Z,6.17
2019-04-05T09:32:29.031Z,6.57
2019-04-05T09:34:57.207Z,6.78
2019-04-05T09:37:24.575Z,7.60
2019-04-05T09:39:52.246Z,6.90
2019-04-05T09:42:19.787Z,7.20
2019-04-05T09:44:48.692Z,8.63
2019-04-05T09:47:16.011Z,7.72
2019-04-05T09:49:43.434Z,8.37
2019-04-05T09:52:10.927Z,8.85
2019-04-05T09:54:38.714Z,7.97
2019-04-05T09:57:08.738Z,7.20
2019-04-05T09:59:36.043Z,9.20
2019-04-05T10:02:03.737Z,8.58
2019-04-05T10:04:31.361Z,8.23
2019-04-05T10:06:58.769Z,9.25
2019-04-05T10:09:26.014Z,7.22
2019-04-05T10:11:53.245Z,9.65
2019-04-05T10:14:20.483Z,8.63
2019-04-05T10:16:47.783Z,9.00
2019-04-05T10:19:15.035Z,8.43
2019-04-05T10:21:42.392Z,7.92
2019-04-05T10:24:09.706Z,8.60
2019-04-05T10:26:36.969Z,9.20
2019-04-05T10:29:04.412Z,8.55
2019-04-05T10:31:31.677Z,9.73
2019-04-05T10:33:59.550Z,9.10
2019-04-05T10:36:27.516Z,9.60
2019-04-05T10:38:56.515Z,9.28
2019-04-05T10:41:23.845Z,9.88
2019-04-05T10:43:51.460Z,9.85
2019-04-05T10:46:18.830Z,9.83
2019-04-05T10:48:46.120Z,9.43
2019-04-05T10:51:13.364Z,9.88
2019-04-05T10:53:40.601Z,9.90
2019-04-05T10:56:07.813Z,10.07
2019-04-05T10:58:36.192Z,9.60
2019-04-05T11:01:03.496Z,11.18
2019-04-05T11:03:30.786Z,10.32
2019-04-05T11:05:58.072Z,11.55
2019-04-05T11:08:25.386Z,10.78
2019-04-05T11:10:52.679Z,12.00
2019-04-05T11:13:19.905Z,11.53
2019-04-05T11:15:47.107Z,11.28
2019-04-05T11:18:14.424Z,11.12
2019-04-05T11:20:41.783Z,10.90
2019-04-05T11:23:09.044Z,11.22
2019-04-05T11:25:36.319Z,12.45
2019-04-05T11:28:03.827Z,11.50
2019-04-05T11:30:38.653Z,11.65
2019-04-05T11:33:06.117Z,10.65
2019-04-05T11:35:34.895Z,10.85
2019-04-05T11:38:03.818Z,10.70
2019-04-05T11:40:31.028Z,10.53
2019-04-05T11:42:58.446Z,10.65
2019-04-05T11:45:25.888Z,10.32
2019-04-05T11:47:53.724Z,11.68
2019-04-05T11:50:33.934Z,10.60
2019-04-05T11:52:51.537Z,11.57
2019-04-05T11:55:18.956Z,11.17
2019-04-05T11:57:46.207Z,11.28
2019-04-05T12:00:21.214Z,10.58
2019-04-05T12:02:50.292Z,12.30
2019-04-05T12:05:17.860Z,12.35
2019-04-05T12:07:45.065Z,11.65
2019-04-05T12:10:12.446Z,11.90
2019-04-05T12:12:39.736Z,11.48
2019-04-05T12:15:07.019Z,12.88
2019-04-05T12:17:35.369Z,12.33
2019-04-05T12:20:03.935Z,11.35
2019-04-05T12:22:34.534Z,11.18
2019-04-05T12:25:00.571Z,11.83
2019-04-05T12:27:29.124Z,12.17
2019-04-05T12:29:56.394Z,11.40
2019-04-05T12:32:33.339Z,11.40
2019-04-05T12:34:54.287Z,11.93
2019-04-05T12:37:22.144Z,11.03
2019-04-05T12:39:49.897Z,10.90
2019-04-05T12:42:17.222Z,10.35
2019-04-05T12:44:45.146Z,10.95
2019-04-05T12:47:13.966Z,21.03
2019-04-05T12:49:43.370Z,12.03
2019-04-05T12:52:21.792Z,11.68
2019-04-05T12:54:39.995Z,11.30
2019-04-05T12:57:08.911Z,11.55
2019-04-05T12:59:36.388Z,11.73
2019-04-05T13:02:05.103Z,10.10
2019-04-05T13:04:33.934Z,9.63
2019-04-05T13:07:01.222Z,9.43
2019-04-05T13:09:28.547Z,10.17
2019-04-05T13:11:57.332Z,10.28
2019-04-05T13:14:26.479Z,7.75
2019-04-05T13:16:53.892Z,7.50
2019-04-05T13:19:21.092Z,7.70
2019-04-05T13:21:48.422Z,8.05
2019-04-05T13:24:16.758Z,7.12
2019-04-05T13:26:44.077Z,7.35
2019-04-05T13:29:12.628Z,7.50
2019-04-05T13:31:40.404Z,8.78
2019-04-05T13:34:09.167Z,7.67
2019-04-05T13:36:39.140Z,9.83
2019-04-05T13:39:06.808Z,8.98
2019-04-05T13:41:35.763Z,7.60
2019-04-05T13:44:04.269Z,7.40
2019-04-05T13:46:31.524Z,8.23
2019-04-05T13:48:58.734Z,8.53
2019-04-05T13:51:33.397Z,7.17
2019-04-05T13:54:34.718Z,8.13
2019-04-05T13:57:02.017Z,8.05
2019-04-05T13:59:29.291Z,7.77
2019-04-05T14:02:06.327Z,6.53
2019-04-05T14:04:31.931Z,8.65
2019-04-05T14:06:59.253Z,6.47
2019-04-05T14:09:26.616Z,5.83
2019-04-05T14:14:51.461Z,5.67
2019-04-05T14:17:18.365Z,7.40
2019-04-05T14:19:46.722Z,5.65
2019-04-05T14:22:14.717Z,5.22
2019-04-05T14:24:42.368Z,7.17
2019-04-05T14:27:09.877Z,5.20
2019-04-05T14:32:21.228Z,6.22
2019-04-05T14:34:45.880Z,6.17
2019-04-05T14:37:13.224Z,7.13
2019-04-05T14:39:40.497Z,6.25
2019-04-05T14:42:10.021Z,5.97
2019-04-05T14:44:36.719Z,5.95
2019-04-05T14:47:03.932Z,4.25
2019-04-05T14:49:31.343Z,4.85
2019-04-05T14:52:02.658Z,5.75
2019-04-05T14:54:30.430Z,5.15
2019-04-05T14:57:05.497Z,4.75
2019-04-05T14:59:32.662Z,4.45
2019-04-05T15:01:59.438Z,5.30
2019-04-05T15:04:28.479Z,4.10
2019-04-05T15:06:57.469Z,5.20
2019-04-05T15:09:25.607Z,3.75
2019-04-05T15:11:53.149Z,4.15
2019-04-05T15:14:22.092Z,3.87
2019-04-05T15:16:49.564Z,5.85
2019-04-05T15:19:17.579Z,5.22
2019-04-05T15:21:45.772Z,3.58
2019-04-05T15:24:15.996Z,9.78
2019-04-05T15:26:43.051Z,13.53
2019-04-05T15:29:10.349Z,6.58
2019-04-05T15:31:39.297Z,4.90
2019-04-05T15:34:06.619Z,6.57
2019-04-05T15:36:33.949Z,5.40
2019-04-05T15:39:01.967Z,6.80
2019-04-05T15:41:29.236Z,4.60
2019-04-05T15:43:57.800Z,5.20
2019-04-05T15:46:25.214Z,4.20
2019-04-05T15:48:52.490Z,4.58
2019-04-05T15:51:19.765Z,3.40
2019-04-05T15:53:47.116Z,4.67
2019-04-05T15:56:14.410Z,4.70
2019-04-05T15:58:43.325Z,3.42
2019-04-05T16:01:11.113Z,3.30
2019-04-05T16:03:38.410Z,3.42
2019-04-05T16:06:05.650Z,5.10
2019-04-05T16:08:32.977Z,3.55
2019-04-05T16:11:00.267Z,2.80
2019-04-05T16:13:27.646Z,3.72
2019-04-05T16:15:54.967Z,4.12
2019-04-05T16:18:22.228Z,3.70
2019-04-05T16:20:49.459Z,4.20
2019-04-05T16:23:18.401Z,9.13
2019-04-05T16:25:45.777Z,14.85
2019-04-05T16:28:13.473Z,6.90
2019-04-05T16:30:40.896Z,3.72
2019-04-05T16:33:08.402Z,3.55
2019-04-05T16:35:37.277Z,3.45
2019-04-05T16:38:04.817Z,4.03
2019-04-05T16:40:32.191Z,3.70
2019-04-05T16:43:02.612Z,2.90
2019-04-05T16:45:28.559Z,2.87
2019-04-05T16:47:55.847Z,4.00
2019-04-05T16:50:23.080Z,6.35
2019-04-05T16:52:50.390Z,3.80
2019-04-05T16:55:17.662Z,3.35
2019-04-05T16:57:44.992Z,3.35
2019-04-05T17:00:12.625Z,2.27
2019-04-05T17:02:39.835Z,2.65
2019-04-05T17:05:07.182Z,2.02
2019-04-05T17:07:34.556Z,2.42
2019-04-05T17:10:01.840Z,2.62
2019-04-05T17:12:29.195Z,3.80
2019-04-05T17:14:56.477Z,2.65
2019-04-05T17:17:23.764Z,2.77
2019-04-05T17:19:53.903Z,4.42
2019-04-05T17:22:21.285Z,4.72
2019-04-05T17:24:48.611Z,4.33
2019-04-05T17:27:17.915Z,5.75
2019-04-05T17:29:46.929Z,6.03
2019-04-05T17:32:15.879Z,6.53
2019-04-05T17:34:43.175Z,5.80
2019-04-05T17:37:10.526Z,5.47
2019-04-05T17:39:37.848Z,5.70
2019-04-05T17:42:05.138Z,6.65
2019-04-05T17:44:32.354Z,4.95
2019-04-05T17:46:59.866Z,5.62
2019-04-05T17:49:27.272Z,6.67
2019-04-05T17:51:55.852Z,5.87
2019-04-05T17:54:23.294Z,7.33
2019-04-05T17:56:50.821Z,10.72
2019-04-05T17:59:18.079Z,9.27
2019-04-05T18:01:45.410Z,5.53
2019-04-05T18:04:12.806Z,6.28
2019-04-05T18:06:41.767Z,5.50
2019-04-05T18:09:09.318Z,7.67
2019-04-05T18:11:37.273Z,6.08
2019-04-05T18:14:04.626Z,7.20
2019-04-05T18:16:33.138Z,7.28
2019-04-05T18:19:00.546Z,9.90
2019-04-05T18:21:27.771Z,9.05
2019-04-05T18:23:55.058Z,8.65
2019-04-05T18:26:22.671Z,8.58
2019-04-05T18:28:51.558Z,8.55
2019-04-05T18:31:18.874Z,8.53
2019-04-05T18:33:46.121Z,7.72
2019-04-05T18:36:13.407Z,10.18
2019-04-05T18:38:41.073Z,10.00
2019-04-05T18:41:08.518Z,9.43
2019-04-05T18:43:35.851Z,8.40
2019-04-05T18:46:03.101Z,8.30
2019-04-05T18:48:30.493Z,7.92
2019-04-05T18:50:57.787Z,9.03
2019-04-05T18:53:37.022Z,8.65
2019-04-05T18:55:53.957Z,8.93
2019-04-05T18:58:21.243Z,8.40
2019-04-05T19:00:48.467Z,7.33
2019-04-05T19:03:15.657Z,8.73
2019-04-05T19:05:42.904Z,8.20
2019-04-05T19:08:10.229Z,8.47
2019-04-05T19:10:37.669Z,7.37
2019-04-05T19:13:04.843Z,7.50
2019-04-05T19:15:32.087Z,12.23
2019-04-05T19:17:59.331Z,9.50
2019-04-05T19:20:26.612Z,9.50
2019-04-05T19:22:53.937Z,8.53
2019-04-05T19:25:21.197Z,8.37
2019-04-05T19:27:48.456Z,7.92
2019-04-05T19:50:08.950Z,7.60
2019-04-05T19:52:36.275Z,7.72
2019-04-05T19:55:03.949Z,7.62
2019-04-05T19:57:31.311Z,7.72
2019-04-05T19:59:58.578Z,7.12
2019-04-05T20:02:25.818Z,7.33
2019-04-05T20:04:53.104Z,7.40
2019-04-05T20:07:20.373Z,6.12
2019-04-05T20:09:47.651Z,7.62
2019-04-05T20:12:15.022Z,8.55
2019-04-05T20:14:42.448Z,7.45
2019-04-05T20:17:09.630Z,6.93
2019-04-05T20:19:36.931Z,8.08
2019-04-05T20:22:04.241Z,7.87
2019-04-05T20:24:31.482Z,8.08
2019-04-05T20:26:58.713Z,9.67
2019-04-05T20:29:26.150Z,9.65
2019-04-05T20:31:53.502Z,10.98
2019-04-05T20:34:20.750Z,9.83
2019-04-05T20:36:47.937Z,9.98
2019-04-05T20:39:15.249Z,11.15
2019-04-05T20:41:42.635Z,11.35
2019-04-05T20:44:09.949Z,9.58
2019-04-05T20:46:37.214Z,10.65
2019-04-05T20:49:04.587Z,9.90
2019-04-05T20:51:31.841Z,9.70
2019-04-05T20:54:01.979Z,10.35
2019-04-05T20:56:29.426Z,11.18
2019-04-05T20:58:56.760Z,12.15
2019-04-05T21:01:23.962Z,9.85
2019-04-05T21:03:51.312Z,10.18
2019-04-05T21:06:18.875Z,10.65
2019-04-05T21:08:46.080Z,10.78
2019-04-05T21:11:13.408Z,11.68
2019-04-05T21:13:40.697Z,11.40
2019-04-05T21:16:07.991Z,12.58
2019-04-05T21:18:35.371Z,11.95
2019-04-05T21:21:02.722Z,12.07
2019-04-05T21:23:29.918Z,13.18
2019-04-05T21:25:57.150Z,13.10
2019-04-05T21:28:24.437Z,12.73
2019-04-05T21:30:51.736Z,13.78
2019-04-05T21:33:19.013Z,13.15
2019-04-05T21:35:46.318Z,15.28
2019-04-05T21:38:13.681Z,15.38
2019-04-05T21:40:40.962Z,13.70
2019-04-05T21:43:08.212Z,14.45
2019-04-05T21:45:35.509Z,14.70
2019-04-05T21:48:02.763Z,13.72
2019-04-05T21:50:30.079Z,13.53
2019-04-05T21:52:57.399Z,13.48
2019-04-05T21:55:24.733Z,13.08
2019-04-05T21:57:52.070Z,13.62
2019-04-05T22:00:21.069Z,15.32
2019-04-05T22:02:48.459Z,13.85
2019-04-05T22:05:15.856Z,15.57
2019-04-05T22:07:43.267Z,15.68
2019-04-05T22:10:10.613Z,16.62
2019-04-05T22:12:39.547Z,15.13
2019-04-05T22:15:06.793Z,15.50
2019-04-05T22:17:34.288Z,13.70
2019-04-05T22:20:01.727Z,15.17
2019-04-05T22:22:29.047Z,14.93
2019-04-05T22:24:59.428Z,18.02
2019-04-05T22:27:26.231Z,15.37
2019-04-05T22:29:53.621Z,13.50
2019-04-05T22:32:20.960Z,14.28
2019-04-05T22:34:48.290Z,15.27
2019-04-05T22:37:15.682Z,16.05
2019-04-05T22:39:43.145Z,15.53
2019-04-05T22:42:11.031Z,16.00
2019-04-05T22:44:41.435Z,16.27
2019-04-05T22:47:07.444Z,15.90
2019-04-05T22:49:34.743Z,17.70
2019-04-05T22:52:02.068Z,16.52
2019-04-05T22:54:29.462Z,16.70
2019-04-05T22:56:56.894Z,16.43
2019-04-05T22:59:24.216Z,16.52
2019-04-05T23:01:51.552Z,16.25
2019-04-05T23:04:18.889Z,17.65
2019-04-05T23:06:46.317Z,17.85
2019-04-05T23:09:14.862Z,18.80
2019-04-05T23:11:42.267Z,17.42
2019-04-05T23:14:09.725Z,15.40
2019-04-05T23:16:38.739Z,16.07
2019-04-05T23:19:06.033Z,20.60
2019-04-05T23:21:34.972Z,18.57
2019-04-05T23:24:02.330Z,19.33
2019-04-05T23:26:29.683Z,18.45
2019-04-05T23:28:57.011Z,17.77
2019-04-05T23:31:24.355Z,16.85
2019-04-05T23:33:51.908Z,16.48
2019-04-05T23:36:19.219Z,17.37
2019-04-05T23:38:46.696Z,17.75
2019-04-05T23:41:15.707Z,18.48
2019-04-05T23:43:43.307Z,17.85
2019-04-05T23:46:10.754Z,17.02
2019-04-05T23:48:38.095Z,17.30
2019-04-05T23:51:05.441Z,18.75
2019-04-05T23:53:32.866Z,16.80
2019-04-05T23:56:00.289Z,17.55
2019-04-05T23:58:27.586Z,16.05
